Time;durP1;ratioP1;P1;durP2;ratioP2;P2;SDS_P1;SDS_P2;PMS_P1;PMS_P2;Temp;Humidity;BMP_temperature;BMP_pressure;BME280_temperature;BME280_humidity;BME280_pressure;Samples;Min_cycle;Max_cycle;Signal;HPM_P1;HPM_P2
2022/09/14 00:01:09;;;;;;;;;;;;;;;23.52;60.42;98648.09;7314827;19;130371;-37
2022/09/14 00:03:34;;;;;;;;;;;;;;;23.52;60.76;98644.66;7311003;19;129509;-37
2022/09/14 00:06:06;;;;;;;;;;;;;;;23.52;60.13;98650.72;7316249;19;129043;-37
2022/09/14 00:08:33;;;;;;;;;;;;;;;23.52;60.87;98648.09;7315479;19;129591;-37
2022/09/14 00:11:02;;;;;;;;;;;;;;;23.52;60.13;98637.59;7315825;19;129417;-36
2022/09/14 00:13:27;;;;;;;;;;;;;;;23.52;60.77;98632.34;7316312;19;129053;-37
2022/09/14 00:15:52;;;;;;;;;;;;;;;23.52;60.17;98634.97;7315760;19;128829;-35
2022/09/14 00:18:18;;;;;;;;;;;;;;;23.53;60.03;98638.41;7316054;19;129042;-37
2022/09/14 00:20:43;;;;;;;;;;;;;;;23.52;60.79;98627.09;7313069;19;129312;-37
2022/09/14 00:23:08;;;;;;;;;;;;;;;23.52;60.09;98628.94;7314552;19;129223;-37
2022/09/14 00:25:33;;;;;;;;;;;;;;;23.53;60.99;98627.94;7315367;19;128917;-37
2022/09/14 00:27:59;;;;;;;;;;;;;;;23.53;60.92;98620.88;7315550;19;129445;-37
2022/09/14 00:30:24;;;;;;;;;;;;;;;23.53;60.93;98617.44;7312798;19;129473;-38
2022/09/14 00:32:50;;;;;;;;;;;;;;;23.52;60.24;98611.34;7314350;19;129465;-37
2022/09/14 00:35:16;;;;;;;;;;;;;;;23.53;60.83;98617.44;7315647;19;129244;-37
2022/09/14 00:37:41;;;;;;;;;;;;;;;23.52;60.18;98611.34;7315710;19;129576;-36
2022/09/14 00:40:07;;;;;;;;;;;;;;;23.51;60.19;98609.75;7313095;19;129242;-36
2022/09/14 00:42:33;;;;;;;;;;;;;;;23.50;60.88;98608.13;7314522;19;129630;-36
2022/09/14 00:45:00;;;;;;;;;;;;;;;23.51;60.36;98609.75;7314650;19;129855;-37
2022/09/14 00:47:27;;;;;;;;;;;;;;;23.40;60.85;98586.56;7314958;19;129120;-37
2022/09/14 00:49:53;;;;;;;;;;;;;;;23.51;60.86;98609.75;7312579;19;129736;-37
2022/09/14 00:52:24;;;;;;;;;;;;;;;23.50;60.32;98608.13;7314078;19;129140;-37
2022/09/14 00:54:51;;;;;;;;;;;;;;;23.50;60.32;98602.88;7313861;19;129080;-37
2022/09/14 00:57:17;;;;;;;;;;;;;;;23.50;60.38;98608.13;7314034;19;129192;-37
2022/09/14 00:59:42;;;;;;;;;;;;;;;23.53;60.54;98607.75;7313098;19;130550;-37
2022/09/14 01:02:09;;;;;;;;;;;;;;;23.53;60.17;98606.94;7312448;19;130468;-37
2022/09/14 01:04:35;;;;;;;;;;;;;;;23.52;60.34;98600.88;7314226;19;128763;-37
2022/09/14 01:07:00;;;;;;;;;;;;;;;23.51;60.86;98604.50;7315144;19;129451;-37
2022/09/14 01:09:39;;;;;;;;;;;;;;;23.51;60.42;98598.41;7312335;19;129427;-37
2022/09/14 01:12:10;;;;;;;;;;;;;;;23.51;60.82;98599.25;7313383;19;128895;-37
2022/09/14 01:14:41;;;;;;;;;;;;;;;23.44;60.29;98579.13;7313016;19;128847;-37
2022/09/14 01:17:19;;;;;;;;;;;;;;;23.51;60.63;98599.25;7314915;19;129593;-35
2022/09/14 01:19:44;;;;;;;;;;;;;;;23.52;60.53;98611.34;7312557;19;129654;-37
2022/09/14 01:22:13;;;;;;;;;;;;;;;23.50;60.79;98607.28;7312338;19;128862;-37
2022/09/14 01:24:52;;;;;;;;;;;;;;;23.51;60.63;98604.50;7314823;19;128886;-38
2022/09/14 01:27:20;;;;;;;;;;;;;;;23.51;60.32;98599.25;7312344;19;129356;-38
2022/09/14 01:30:03;;;;;;;;;;;;;;;23.50;60.53;98583.69;7311986;19;129134;-37
2022/09/14 01:32:41;;;;;;;;;;;;;;;23.50;60.90;98589.75;7312693;19;128888;-37
2022/09/14 01:35:11;;;;;;;;;;;;;;;23.52;61.18;98585.13;7313220;19;129327;-37
2022/09/14 01:37:59;;;;;;;;;;;;;;;23.50;60.63;98576.63;7312596;19;129645;-37
2022/09/14 01:40:28;;;;;;;;;;;;;;;23.51;60.70;98587.94;7308282;19;129854;-37
2022/09/14 01:42:56;;;;;;;;;;;;;;;23.50;60.55;98576.63;7311640;19;129397;-37
2022/09/14 01:45:23;;;;;;;;;;;;;;;23.42;60.52;98563.56;7314773;19;129533;-37
2022/09/14 01:47:53;;;;;;;;;;;;;;;23.51;61.04;98577.44;7312872;19;129508;-37
2022/09/14 01:50:24;;;;;;;;;;;;;;;23.52;61.06;98584.34;7310332;19;129963;-37
2022/09/14 01:52:57;;;;;;;;;;;;;;;23.53;60.77;98578.06;7312691;19;128744;-37
2022/09/14 01:55:35;;;;;;;;;;;;;;;23.52;60.56;98579.88;7314869;19;130108;-37
2022/09/14 01:58:13;;;;;;;;;;;;;;;23.53;60.70;98571.03;7312248;19;129347;-37
2022/09/14 02:00:42;;;;;;;;;;;;;;;23.54;60.95;98564.78;7309059;19;130363;-37
2022/09/14 02:03:10;;;;;;;;;;;;;;;23.54;60.82;98554.28;7310612;19;129709;-37
2022/09/14 02:05:35;;;;;;;;;;;;;;;23.53;60.77;98549.22;7311236;19;129041;-37
2022/09/14 02:08:01;;;;;;;;;;;;;;;23.53;60.33;98547.41;7312202;19;129753;-36
2022/09/14 02:10:27;;;;;;;;;;;;;;;23.51;61.00;98545.94;7309232;19;129762;-38
2022/09/14 02:12:52;;;;;;;;;;;;;;;23.54;60.58;98551.66;7311753;19;129270;-37
2022/09/14 02:15:17;;;;;;;;;;;;;;;23.52;61.05;98550.22;7311424;19;129182;-37
2022/09/14 02:17:43;;;;;;;;;;;;;;;23.50;61.07;98547.78;7311982;19;129517;-38
2022/09/14 02:20:17;;;;;;;;;;;;;;;23.51;61.15;98549.41;7309475;19;129707;-37
2022/09/14 02:22:42;;;;;;;;;;;;;;;23.52;60.60;98556.25;7310919;19;129500;-37
2022/09/14 02:25:08;;;;;;;;;;;;;;;23.53;60.27;98550.03;7313644;19;129213;-37
2022/09/14 02:27:33;;;;;;;;;;;;;;;23.53;60.49;98550.03;7317727;19;130598;-37
2022/09/14 02:29:59;;;;;;;;;;;;;;;23.52;60.84;98534.47;7318193;19;129139;-38
2022/09/14 02:32:43;;;;;;;;;;;;;;;23.46;60.49;98528.13;7319615;19;129983;-38
2022/09/14 02:35:14;;;;;;;;;;;;;;;23.53;61.10;98538.72;7319049;19;129040;-37
2022/09/14 02:37:51;;;;;;;;;;;;;;;23.53;60.66;98530.84;7318210;19;129392;-37
2022/09/14 02:40:25;;;;;;;;;;;;;;;23.52;60.99;98522.16;7315698;19;129593;-37
2022/09/14 02:43:16;;;;;;;;;;;;;;;23.50;60.75;98524.16;7317002;19;129257;-37
2022/09/14 02:45:57;;;;;;;;;;;;;;;23.52;60.37;98532.66;7318221;19;128940;-37
2022/09/14 02:48:25;;;;;;;;;;;;;;;23.52;61.01;98531.84;7318876;19;130163;-37
2022/09/14 02:50:59;;;;;;;;;;;;;;;23.52;61.08;98532.66;7314380;19;131164;-38
2022/09/14 02:53:33;;;;;;;;;;;;;;;23.52;60.70;98537.91;7317223;19;129610;-36
2022/09/14 02:56:01;;;;;;;;;;;;;;;23.51;61.06;98533.66;7318540;19;129174;-38
2022/09/14 02:58:33;;;;;;;;;;;;;;;23.53;60.47;98536.94;7317037;19;129440;-35
2022/09/14 03:00:58;;;;;;;;;;;;;;;23.52;60.63;98537.91;7316815;19;129968;-38
2022/09/14 03:03:23;;;;;;;;;;;;;;;23.52;60.53;98539.72;7316123;19;129066;-38
2022/09/14 03:05:48;;;;;;;;;;;;;;;23.41;60.74;98519.16;7317025;19;128751;-38
2022/09/14 03:08:13;;;;;;;;;;;;;;;23.52;60.64;98537.91;7317342;19;129476;-37
2022/09/14 03:10:41;;;;;;;;;;;;;;;23.51;60.27;98536.28;7314629;19;129639;-37
2022/09/14 03:13:06;;;;;;;;;;;;;;;23.52;60.59;98542.34;7316590;19;129437;-37
2022/09/14 03:15:31;;;;;;;;;;;;;;;23.51;60.43;98536.28;7317773;19;129686;-37
2022/09/14 03:17:57;;;;;;;;;;;;;;;23.42;61.17;98521.59;7317052;19;129553;-37
2022/09/14 03:20:23;;;;;;;;;;;;;;;23.51;60.74;98530.22;7315805;19;130535;-37
2022/09/14 03:22:48;;;;;;;;;;;;;;;23.50;60.63;98534.66;7315438;19;129114;-38
2022/09/14 03:25:14;;;;;;;;;;;;;;;23.51;60.64;98527.59;7317512;19;129020;-37
2022/09/14 03:27:39;;;;;;;;;;;;;;;23.50;60.20;98539.91;7317818;19;129664;-37
2022/09/14 03:30:05;;;;;;;;;;;;;;;23.51;60.38;98546.78;7314601;19;131218;-37
2022/09/14 03:32:31;;;;;;;;;;;;;;;23.51;61.02;98538.91;7317020;19;128787;-37
2022/09/14 03:34:56;;;;;;;;;;;;;;;23.50;60.97;98545.16;7316895;19;129237;-37
2022/09/14 03:37:22;;;;;;;;;;;;;;;23.51;60.48;98549.41;7317419;19;129323;-37
2022/09/14 03:39:47;;;;;;;;;;;;;;;23.49;60.48;98540.88;7314838;19;129734;-37
2022/09/14 03:42:12;;;;;;;;;;;;;;;23.49;60.89;98538.25;7315555;19;129216;-37
2022/09/14 03:44:38;;;;;;;;;;;;;;;23.50;60.52;98539.09;7317067;19;129145;-36
2022/09/14 03:47:03;;;;;;;;;;;;;;;23.51;60.44;98535.47;7315788;19;129733;-37
2022/09/14 03:49:28;;;;;;;;;;;;;;;23.52;60.37;98531.84;7314770;19;129495;-37
2022/09/14 03:51:53;;;;;;;;;;;;;;;23.45;60.36;98520.44;7315609;19;129502;-36
2022/09/14 03:54:19;;;;;;;;;;;;;;;23.50;60.30;98534.66;7316687;19;129860;-37
2022/09/14 03:56:44;;;;;;;;;;;;;;;23.50;60.31;98524.16;7316845;19;130413;-38
2022/09/14 03:59:09;;;;;;;;;;;;;;;23.49;60.65;98519.06;7313897;19;129521;-37
2022/09/14 04:01:35;;;;;;;;;;;;;;;23.49;60.61;98527.75;7314764;19;129387;-37
2022/09/14 04:04:00;;;;;;;;;;;;;;;23.49;61.00;98511.19;7314677;19;129464;-37
2022/09/14 04:06:26;;;;;;;;;;;;;;;23.50;60.47;98511.06;7315341;19;129464;-37
2022/09/14 04:08:51;;;;;;;;;;;;;;;23.50;60.56;98502.34;7315147;19;129520;-37
2022/09/14 04:11:18;;;;;;;;;;;;;;;23.40;60.57;98492.13;7314547;19;129064;-37
2022/09/14 04:13:44;;;;;;;;;;;;;;;23.38;60.92;98483.59;7315758;19;130403;-37
2022/09/14 04:16:09;;;;;;;;;;;;;;;23.48;60.48;98499.91;7315790;19;130497;-37
2022/09/14 04:18:34;;;;;;;;;;;;;;;23.50;60.41;98492.69;7316227;19;129211;-37
2022/09/14 04:21:01;;;;;;;;;;;;;;;23.47;60.09;98494.84;7314278;19;129138;-36
2022/09/14 04:23:26;;;;;;;;;;;;;;;23.51;60.77;98494.31;7313065;19;130044;-38
2022/09/14 04:25:52;;;;;;;;;;;;;;;23.43;60.47;98481.28;7314846;19;130506;-37
2022/09/14 04:28:18;;;;;;;;;;;;;;;23.51;59.83;98494.31;7315090;19;129223;-37
2022/09/14 04:30:43;;;;;;;;;;;;;;;23.44;59.87;98477.63;7311933;19;129504;-37
2022/09/14 04:33:09;;;;;;;;;;;;;;;23.54;59.83;98488.69;7314961;19;130481;-38
2022/09/14 04:35:36;;;;;;;;;;;;;;;23.54;60.26;98487.88;7310046;19;129565;-37
2022/09/14 04:38:01;;;;;;;;;;;;;;;23.55;60.42;98485.06;7313835;19;130515;-37
2022/09/14 04:40:27;;;;;;;;;;;;;;;23.54;60.28;98487.88;7312565;19;129312;-37
2022/09/14 04:42:53;;;;;;;;;;;;;;;23.53;60.06;98487.06;7312846;19;129522;-37
2022/09/14 04:45:18;;;;;;;;;;;;;;;23.49;60.01;98475.28;7316526;19;129086;-37
2022/09/14 04:47:43;;;;;;;;;;;;;;;23.53;60.55;98481.81;7314431;19;129324;-36
2022/09/14 04:50:08;;;;;;;;;;;;;;;23.53;60.16;98481.00;7312547;19;130071;-37
2022/09/14 04:52:34;;;;;;;;;;;;;;;23.52;59.75;98477.56;7313022;19;130272;-37
2022/09/14 04:54:59;;;;;;;;;;;;;;;23.53;60.27;98481.81;7316178;19;129656;-37
2022/09/14 04:57:24;;;;;;;;;;;;;;;23.41;60.37;98462.25;7315850;19;130439;-37
2022/09/14 04:59:50;;;;;;;;;;;;;;;23.52;59.75;98485.44;7312355;19;128889;-37
2022/09/14 05:02:15;;;;;;;;;;;;;;;23.45;60.09;98484.53;7312118;19;130313;-37
2022/09/14 05:04:41;;;;;;;;;;;;;;;23.44;60.88;98484.69;7313182;19;129363;-37
2022/09/14 05:07:06;;;;;;;;;;;;;;;23.43;60.63;98481.28;7310204;19;130089;-37
2022/09/14 05:09:32;;;;;;;;;;;;;;;23.42;61.05;98473.56;7310943;19;129027;-37
2022/09/14 05:11:57;;;;;;;;;;;;;;;23.41;61.13;98483.25;7311901;19;130390;-37
2022/09/14 05:14:22;;;;;;;;;;;;;;;23.39;60.52;98474.72;7310796;19;129838;-37
2022/09/14 05:16:47;;;;;;;;;;;;;;;23.40;60.45;98471.13;7313044;19;129798;-37
2022/09/14 05:19:14;;;;;;;;;;;;;;;23.40;61.12;98476.38;7308352;19;130432;-37
2022/09/14 05:21:39;;;;;;;;;;;;;;;23.40;61.14;98471.13;7312863;19;130938;-38
2022/09/14 05:24:06;;;;;;;;;;;;;;;23.42;60.96;98470.97;7310359;19;130555;-37
2022/09/14 05:26:32;;;;;;;;;;;;;;;23.42;60.88;98479.63;7314025;19;130171;-37
2022/09/14 05:28:58;;;;;;;;;;;;;;;23.41;60.49;98475.38;7312978;19;129165;-37
2022/09/14 05:31:24;;;;;;;;;;;;;;;23.32;61.24;98463.31;7312137;19;129232;-38
2022/09/14 05:33:49;;;;;;;;;;;;;;;23.43;61.13;98470.78;7313143;19;130202;-37
2022/09/14 05:36:15;;;;;;;;;;;;;;;23.43;61.22;98469.94;7312697;19;131180;-37
2022/09/14 05:38:40;;;;;;;;;;;;;;;23.41;60.91;98467.50;7312963;19;129270;-37
2022/09/14 05:41:06;;;;;;;;;;;;;;;23.43;60.88;98470.78;7313642;19;128994;-37
2022/09/14 05:43:32;;;;;;;;;;;;;;;23.31;60.80;98456.44;7311036;19;129145;-37
2022/09/14 05:46:01;;;;;;;;;;;;;;;23.42;60.69;98466.50;7314126;19;130318;-37
2022/09/14 05:48:29;;;;;;;;;;;;;;;23.42;60.87;98466.50;7314910;19;129425;-37
2022/09/14 05:51:01;;;;;;;;;;;;;;;23.43;60.69;98470.78;7310682;19;129156;-37
2022/09/14 05:53:26;;;;;;;;;;;;;;;23.44;61.04;98464.53;7313081;19;129069;-37
2022/09/14 05:56:18;;;;;;;;;;;;;;;23.42;61.13;98463.88;7312364;19;130331;-38
2022/09/14 05:58:43;;;;;;;;;;;;;;;23.42;60.68;98453.38;7311839;19;129135;-37
2022/09/14 06:01:13;;;;;;;;;;;;;;;23.42;61.36;98448.13;7300196;19;130285;-39
2022/09/14 06:03:39;;;;;;;;;;;;;;;23.42;61.10;98453.38;7303557;19;130576;-38
2022/09/14 06:06:05;;;;;;;;;;;;;;;23.42;61.29;98449.97;7318143;19;129792;-37
2022/09/14 06:08:31;;;;;;;;;;;;;;;23.42;61.16;98460.47;7320066;19;129092;-37
2022/09/14 06:10:56;;;;;;;;;;;;;;;23.43;60.82;98455.03;7317702;19;128986;-37
2022/09/14 06:13:24;;;;;;;;;;;;;;;23.42;61.43;98442.91;7319321;19;130179;-38
2022/09/14 06:15:49;;;;;;;;;;;;;;;23.43;61.34;98448.97;7320165;19;130255;-38
2022/09/14 06:18:15;;;;;;;;;;;;;;;23.42;61.34;98440.28;7319401;19;129271;-38
2022/09/14 06:20:48;;;;;;;;;;;;;;;23.44;60.79;98445.34;7318030;19;129123;-37
2022/09/14 06:23:13;;;;;;;;;;;;;;;23.44;60.77;98440.09;7316833;19;129987;-35
2022/09/14 06:25:38;;;;;;;;;;;;;;;23.43;60.80;98439.28;7320826;19;129217;-35
2022/09/14 06:28:04;;;;;;;;;;;;;;;23.45;61.17;98439.94;7319721;19;128874;-37
2022/09/14 06:30:29;;;;;;;;;;;;;;;23.43;60.86;98443.72;7316553;19;130498;-37
2022/09/14 06:32:54;;;;;;;;;;;;;;;23.44;61.18;98440.91;7313502;19;129902;-37
2022/09/14 06:35:19;;;;;;;;;;;;;;;23.42;61.45;98442.91;7313670;19;129154;-37
2022/09/14 06:37:44;;;;;;;;;;;;;;;23.43;60.85;98439.28;7317517;19;129997;-37
2022/09/14 06:40:10;;;;;;;;;;;;;;;23.44;61.33;98447.97;7315647;19;130165;-37
2022/09/14 06:42:35;;;;;;;;;;;;;;;23.44;61.19;98451.41;7314269;19;129872;-37
2022/09/14 06:45:00;;;;;;;;;;;;;;;23.44;60.45;98451.41;7315092;19;129664;-37
2022/09/14 06:47:30;;;;;;;;;;;;;;;23.44;61.00;98453.22;7315491;19;129477;-37
2022/09/14 06:49:55;;;;;;;;;;;;;;;23.45;60.80;98449.59;7315916;19;129499;-38
2022/09/14 06:52:20;;;;;;;;;;;;;;;23.45;61.70;98452.22;7315655;19;129030;-38
2022/09/14 06:54:46;;;;;;;;;;;;;;;23.46;61.25;98448.59;7316931;19;130546;-38
2022/09/14 06:57:11;;;;;;;;;;;;;;;23.45;60.93;98446.97;7318109;19;129250;-35
2022/09/14 06:59:36;;;;;;;;;;;;;;;23.43;60.72;98449.78;7316697;19;130378;-37
2022/09/14 07:02:01;;;;;;;;;;;;;;;23.44;60.91;98455.81;7308632;19;129953;-37
2022/09/14 07:04:27;;;;;;;;;;;;;;;23.47;61.57;98458.13;7312731;19;130729;-37
2022/09/14 07:06:52;;;;;;;;;;;;;;;23.46;60.49;98454.66;7314749;19;129516;-36
2022/09/14 07:09:18;;;;;;;;;;;;;;;23.46;61.64;98454.66;7315303;19;128960;-37
2022/09/14 07:11:43;;;;;;;;;;;;;;;23.45;60.95;98449.59;7315538;19;129562;-37
2022/09/14 07:14:09;;;;;;;;;;;;;;;23.44;60.79;98448.78;7318023;19;130264;-37
2022/09/14 07:16:36;;;;;;;;;;;;;;;23.46;61.13;98438.09;7318186;19;129069;-37
2022/09/14 07:19:03;;;;;;;;;;;;;;;23.44;61.69;98448.78;7315714;19;129372;-37
2022/09/14 07:21:30;;;;;;;;;;;;;;;23.43;61.69;98439.28;7317546;19;129230;-35
2022/09/14 07:23:55;;;;;;;;;;;;;;;23.44;61.14;98450.59;7314846;19;129614;-37
2022/09/14 07:26:25;;;;;;;;;;;;;;;23.44;61.51;98451.41;7317052;19;129016;-35
2022/09/14 07:28:55;;;;;;;;;;;;;;;23.41;61.59;98446.53;7317764;19;129614;-35
2022/09/14 07:31:25;;;;;;;;;;;;;;;23.34;61.09;98429.88;7316485;19;129486;-37
2022/09/14 07:33:54;;;;;;;;;;;;;;;23.44;61.79;98455.81;7317229;19;130912;-38
2022/09/14 07:36:19;;;;;;;;;;;;;;;23.45;61.46;98452.22;7317908;19;130476;-37
2022/09/14 07:38:45;;;;;;;;;;;;;;;23.43;61.73;98455.03;7317987;19;129762;-37
2022/09/14 07:41:10;;;;;;;;;;;;;;;23.42;61.07;98453.38;7316501;19;129620;-37
2022/09/14 07:43:35;;;;;;;;;;;;;;;23.44;61.59;98451.41;7316731;19;129300;-38
2022/09/14 07:46:04;;;;;;;;;;;;;;;23.45;61.34;98447.81;7316480;19;129105;-38
2022/09/14 07:48:30;;;;;;;;;;;;;;;23.45;61.75;98446.97;7316099;19;129034;-37
2022/09/14 07:50:59;;;;;;;;;;;;;;;23.43;61.04;98439.28;7314317;19;129390;-37
2022/09/14 07:53:24;;;;;;;;;;;;;;;23.44;61.25;98451.41;7315927;19;130544;-38
2022/09/14 07:55:49;;;;;;;;;;;;;;;23.35;61.47;98431.50;7316590;19;129062;-37
2022/09/14 07:58:14;;;;;;;;;;;;;;;23.46;61.65;98449.44;7317333;19;129090;-37
2022/09/14 08:00:40;;;;;;;;;;;;;;;23.35;61.22;98434.13;7313516;19;130898;-37
2022/09/14 08:03:05;;;;;;;;;;;;;;;23.44;61.38;98446.16;7315764;19;130337;-37
2022/09/14 08:05:30;;;;;;;;;;;;;;;23.44;61.79;98446.16;7316357;19;129039;-37
2022/09/14 08:07:56;;;;;;;;;;;;;;;23.42;61.21;98442.91;7316722;19;130181;-37
2022/09/14 08:10:21;;;;;;;;;;;;;;;23.43;61.23;98438.47;7312486;19;131047;-37
2022/09/14 08:12:53;;;;;;;;;;;;;;;23.44;61.45;98440.09;7316428;19;129241;-37
2022/09/14 08:15:20;;;;;;;;;;;;;;;23.44;61.22;98446.16;7316484;19;129835;-37
2022/09/14 08:17:45;;;;;;;;;;;;;;;23.43;61.56;98439.28;7316625;19;129062;-37
2022/09/14 08:20:10;;;;;;;;;;;;;;;23.43;61.51;98444.53;7313944;19;129784;-37
2022/09/14 08:22:35;;;;;;;;;;;;;;;23.46;61.61;98438.94;7314342;19;129588;-37
2022/09/14 08:25:01;;;;;;;;;;;;;;;23.44;61.36;98445.34;7313926;19;128983;-37
2022/09/14 08:27:26;;;;;;;;;;;;;;;23.43;61.76;98444.53;7316426;19;129301;-37
2022/09/14 08:29:51;;;;;;;;;;;;;;;23.36;61.93;98427.06;7315049;19;129604;-37
2022/09/14 08:32:16;;;;;;;;;;;;;;;23.45;61.93;98441.75;7313863;19;129620;-37
2022/09/14 08:34:41;;;;;;;;;;;;;;;23.37;61.68;98428.72;7316215;19;128799;-37
2022/09/14 08:37:09;;;;;;;;;;;;;;;23.45;61.63;98442.56;7315744;19;129154;-38
2022/09/14 08:39:34;;;;;;;;;;;;;;;23.44;61.99;98443.53;7314398;19;129922;-37
2022/09/14 08:42:00;;;;;;;;;;;;;;;23.45;61.65;98441.75;7315755;19;129318;-36
2022/09/14 08:44:27;;;;;;;;;;;;;;;23.44;62.04;98440.09;7313870;19;129465;-37
2022/09/14 08:46:58;;;;;;;;;;;;;;;23.43;61.71;98439.28;7315866;19;129019;-37
2022/09/14 08:49:24;;;;;;;;;;;;;;;23.36;61.88;98424.44;7299771;19;130729;-37
2022/09/14 08:51:49;;;;;;;;;;;;;;;23.44;61.36;98440.91;7309641;19;129745;-37
2022/09/14 08:54:15;;;;;;;;;;;;;;;23.45;62.19;98441.75;7315750;19;129083;-36
2022/09/14 08:56:44;;;;;;;;;;;;;;;23.45;61.40;98437.31;7314642;19;128970;-37
2022/09/14 08:59:32;;;;;;;;;;;;;;;23.47;61.80;98445.78;7313522;19;129552;-37
2022/09/14 09:01:57;;;;;;;;;;;;;;;23.44;61.52;98446.16;7312532;19;129672;-37
2022/09/14 09:04:28;;;;;;;;;;;;;;;23.44;61.53;98446.16;7306819;19;130938;-37
2022/09/14 09:06:59;;;;;;;;;;;;;;;23.45;61.81;98453.06;7309237;19;129590;-37
2022/09/14 09:09:39;;;;;;;;;;;;;;;23.35;62.19;98431.50;7307723;19;129216;-37
2022/09/14 09:12:05;;;;;;;;;;;;;;;23.41;61.35;98429.97;7306885;19;129806;-37
2022/09/14 09:14:34;;;;;;;;;;;;;;;23.46;61.50;98438.94;7305027;19;145301;-35
2022/09/14 09:17:01;;;;;;;;;;;;;;;23.46;61.60;98438.94;7312454;19;129320;-35
2022/09/14 09:19:32;;;;;;;;;;;;;;;23.48;61.63;98444.00;7312462;19;130109;-37
2022/09/14 09:21:58;;;;;;;;;;;;;;;23.47;61.98;98435.31;7312286;19;131057;-37
2022/09/14 09:24:37;;;;;;;;;;;;;;;23.46;61.34;98436.31;7313417;19;129034;-37
2022/09/14 09:27:07;;;;;;;;;;;;;;;23.47;62.16;98434.50;7315797;19;128931;-37
2022/09/14 09:29:32;;;;;;;;;;;;;;;23.47;61.68;98437.13;7313514;19;129241;-37
2022/09/14 09:31:58;;;;;;;;;;;;;;;23.39;61.84;98422.28;7313952;19;129533;-37
2022/09/14 09:34:28;;;;;;;;;;;;;;;23.47;62.09;98440.56;7314326;19;129033;-37
2022/09/14 09:36:54;;;;;;;;;;;;;;;23.46;61.46;98435.47;7314827;19;128864;-37
2022/09/14 09:39:20;;;;;;;;;;;;;;;23.46;61.63;98428.44;7312489;19;130949;-37
2022/09/14 09:41:52;;;;;;;;;;;;;;;23.46;61.90;98423.19;7313207;19;130312;-37
2022/09/14 09:44:17;;;;;;;;;;;;;;;23.45;62.37;98418.13;7314550;19;129272;-37
2022/09/14 09:46:54;;;;;;;;;;;;;;;23.36;61.92;98400.84;7314054;19;129385;-38
2022/09/14 09:49:24;;;;;;;;;;;;;;;23.44;61.88;98419.94;7312289;19;129420;-35
2022/09/14 09:51:50;;;;;;;;;;;;;;;23.46;62.28;98420.56;7314247;19;130884;-37
2022/09/14 09:54:15;;;;;;;;;;;;;;;23.44;62.27;98419.94;7314331;19;129430;-35
2022/09/14 09:56:51;;;;;;;;;;;;;;;23.46;62.20;98417.13;7314298;19;129889;-37
2022/09/14 09:59:36;;;;;;;;;;;;;;;23.44;61.94;98419.94;7312219;19;129284;-37
2022/09/14 10:02:20;;;;;;;;;;;;;;;23.45;61.92;98411.09;7312963;19;129344;-37
2022/09/14 10:05:09;;;;;;;;;;;;;;;23.45;61.98;98405.84;7310251;19;129434;-37
2022/09/14 10:07:40;;;;;;;;;;;;;;;23.45;61.77;98411.09;7309679;19;129290;-35
2022/09/14 10:10:07;;;;;;;;;;;;;;;23.46;62.17;98399.59;7310237;19;130061;-37
2022/09/14 10:12:33;;;;;;;;;;;;;;;23.46;62.08;98394.34;7311793;19;130708;-37
2022/09/14 10:15:15;;;;;;;;;;;;;;;23.47;62.08;98392.53;7312422;19;129006;-37
2022/09/14 10:17:51;;;;;;;;;;;;;;;23.45;62.45;98390.09;7312918;19;128873;-37
2022/09/14 10:20:21;;;;;;;;;;;;;;;23.45;62.38;98390.09;7310800;19;129537;-37
2022/09/14 10:22:46;;;;;;;;;;;;;;;23.45;62.33;98389.28;7312590;19;130378;-37
2022/09/14 10:25:12;;;;;;;;;;;;;;;23.38;62.45;98378.69;7310113;19;130783;-37
2022/09/14 10:27:38;;;;;;;;;;;;;;;23.45;62.40;98392.72;7310339;19;129029;-37
2022/09/14 10:30:05;;;;;;;;;;;;;;;23.46;61.76;98391.72;7305976;19;129681;-37
2022/09/14 10:32:31;;;;;;;;;;;;;;;23.39;61.95;98374.28;7308364;19;131478;-37
2022/09/14 10:34:57;;;;;;;;;;;;;;;23.47;61.79;98388.09;7307182;19;129847;-36
2022/09/14 10:37:26;;;;;;;;;;;;;;;23.51;62.13;98394.63;7311735;19;128983;-36
2022/09/14 10:40:15;;;;;;;;;;;;;;;23.47;61.74;98382.84;7310284;19;131154;-37
2022/09/14 10:42:48;;;;;;;;;;;;;;;23.47;62.13;98382.03;7310405;19;129436;-37
2022/09/14 10:45:19;;;;;;;;;;;;;;;23.47;61.73;98393.34;7310522;19;128989;-37
2022/09/14 10:47:51;;;;;;;;;;;;;;;23.46;61.85;98386.47;7318536;19;129129;-37
2022/09/14 10:50:34;;;;;;;;;;;;;;;23.49;62.12;98398.41;7317439;19;130112;-36
2022/09/14 10:53:16;;;;;;;;;;;;;;;23.47;62.07;98409.06;7316937;19;129563;-37
2022/09/14 10:56:00;;;;;;;;;;;;;;;23.39;62.47;98400.50;7319981;19;129362;-36
2022/09/14 10:58:28;;;;;;;;;;;;;;;23.49;62.45;98416.75;7318165;19;129138;-38
2022/09/14 11:01:11;;;;;;;;;;;;;;;23.47;62.25;98414.31;7316540;19;130264;-35
2022/09/14 11:03:52;;;;;;;;;;;;;;;23.49;62.15;98422.81;7318128;19;129226;-37
2022/09/14 11:06:36;;;;;;;;;;;;;;;23.40;62.29;98413.44;7317785;19;128933;-37
2022/09/14 11:09:10;;;;;;;;;;;;;;;23.48;62.24;98421.22;7318372;19;129647;-37
2022/09/14 11:11:35;;;;;;;;;;;;;;;23.50;62.43;98413.97;7317818;19;129286;-37
2022/09/14 11:14:08;;;;;;;;;;;;;;;23.48;61.81;98408.09;7318433;19;129726;-37
2022/09/14 11:16:36;;;;;;;;;;;;;;;23.48;62.07;98404.66;7319280;19;129079;-38
2022/09/14 11:19:06;;;;;;;;;;;;;;;23.49;62.12;98409.72;7317129;19;129503;-37
2022/09/14 11:21:37;;;;;;;;;;;;;;;23.49;62.29;98396.59;7317492;19;130763;-37
2022/09/14 11:24:10;;;;;;;;;;;;;;;23.39;62.42;98377.69;7316751;19;130332;-37
2022/09/14 11:26:38;;;;;;;;;;;;;;;23.45;62.56;98374.34;7318909;19;129061;-37
2022/09/14 11:29:17;;;;;;;;;;;;;;;23.48;62.22;98379.25;7316897;19;129649;-37
2022/09/14 11:31:45;;;;;;;;;;;;;;;23.48;62.49;98389.72;7317424;19;129195;-37
2022/09/14 11:34:36;;;;;;;;;;;;;;;23.49;62.54;98390.53;7316709;19;129441;-37
2022/09/14 11:37:28;;;;;;;;;;;;;;;23.50;62.49;98393.00;7315557;19;128939;-37
2022/09/14 11:39:59;;;;;;;;;;;;;;;23.39;62.35;98375.06;7314831;19;129756;-37
2022/09/14 11:42:29;;;;;;;;;;;;;;;23.49;62.23;98380.84;7317141;19;129156;-38
2022/09/14 11:45:15;;;;;;;;;;;;;;;23.49;61.95;98370.38;7315801;19;130201;-37
2022/09/14 11:47:43;;;;;;;;;;;;;;;23.47;62.38;98372.34;7296661;19;129323;-38
2022/09/14 11:50:18;;;;;;;;;;;;;;;23.48;62.09;98360.88;7315060;19;129123;-37
2022/09/14 11:52:43;;;;;;;;;;;;;;;23.49;61.90;98357.25;7317310;19;130230;-37
2022/09/14 11:55:10;;;;;;;;;;;;;;;23.50;62.20;98355.44;7315547;19;130442;-38
2022/09/14 11:57:36;;;;;;;;;;;;;;;23.42;61.94;98345.03;7314744;19;130159;-37
2022/09/14 12:00:06;;;;;;;;;;;;;;;23.50;62.27;98369.38;7314681;19;129765;-37
2022/09/14 12:02:31;;;;;;;;;;;;;;;23.51;62.42;98371.00;7315860;19;130905;-38
2022/09/14 12:05:06;;;;;;;;;;;;;;;23.51;62.57;98362.31;7315087;19;130672;-36
2022/09/14 12:10:17;;;;;;;;;;;;;;;23.49;62.34;98354.63;7315546;19;129316;-37
2022/09/14 12:12:45;;;;;;;;;;;;;;;23.48;62.14;98353.00;7316217;19;130060;-38
2022/09/14 12:15:13;;;;;;;;;;;;;;;23.48;62.13;98353.00;7316079;19;129490;-36
2022/09/14 12:17:40;;;;;;;;;;;;;;;23.49;62.19;98354.63;7318335;19;129660;-37
2022/09/14 12:20:24;;;;;;;;;;;;;;;23.49;61.84;98354.63;7314601;19;129363;-35
2022/09/14 12:22:49;;;;;;;;;;;;;;;23.49;62.66;98341.50;7316829;19;130010;-37
2022/09/14 12:25:18;;;;;;;;;;;;;;;23.50;62.20;98350.19;7313341;19;130507;-37
2022/09/14 12:27:44;;;;;;;;;;;;;;;23.48;62.24;98347.75;7315488;19;128881;-37
2022/09/14 12:30:28;;;;;;;;;;;;;;;23.49;62.21;98349.38;7313906;19;129371;-37
2022/09/14 12:32:53;;;;;;;;;;;;;;;23.49;62.11;98344.13;7314511;19;129330;-37
2022/09/14 12:35:31;;;;;;;;;;;;;;;23.48;62.75;98337.25;7314948;19;129178;-37
2022/09/14 12:37:56;;;;;;;;;;;;;;;23.50;62.36;98345.78;7314809;19;129045;-37
2022/09/14 12:40:30;;;;;;;;;;;;;;;23.49;61.92;98341.50;7313876;19;129134;-37
2022/09/14 12:42:55;;;;;;;;;;;;;;;23.49;62.30;98335.44;7314602;19;129129;-37
2022/09/14 12:45:39;;;;;;;;;;;;;;;23.49;62.29;98338.88;7314364;19;129363;-37